Time;durP1;ratioP1;P1;durP2;ratioP2;P2;SDS_P1;SDS_P2;PMS_P1;PMS_P2;Temp;Humidity;BMP_temperature;BMP_pressure;BME280_temperature;BME280_humidity;BME280_pressure;Samples;Min_cycle;Max_cycle;Signal;HPM_P1;HPM_P2
2022/05/23 00:00:25;;;;;;;6.03;1.80;;;15.80;99.90;;;;;;5132113;27;20031;-59
2022/05/23 00:02:50;;;;;;;5.20;1.77;;;15.80;99.90;;;;;;5141097;27;20030;-58
2022/05/23 00:05:17;;;;;;;6.10;2.35;;;15.70;99.90;;;;;;5152627;27;20038;-58
2022/05/23 00:07:46;;;;;;;9.18;1.92;;;15.70;99.90;;;;;;5151681;27;20073;-57
2022/05/23 00:10:14;;;;;;;6.45;1.92;;;15.70;99.90;;;;;;5152447;27;20046;-58
2022/05/23 00:12:41;;;;;;;4.55;2.00;;;15.60;99.90;;;;;;5152287;27;20121;-58
2022/05/23 00:15:09;;;;;;;6.50;2.20;;;15.70;99.90;;;;;;5152457;27;20119;-58
2022/05/23 00:17:35;;;;;;;5.35;1.92;;;15.70;99.90;;;;;;5152396;27;20030;-59
2022/05/23 00:20:04;;;;;;;7.05;1.90;;;15.70;99.90;;;;;;5130403;27;20032;-58
2022/05/23 00:22:31;;;;;;;6.25;1.88;;;15.70;99.90;;;;;;5143054;27;20420;-59
2022/05/23 00:24:57;;;;;;;6.82;1.77;;;15.70;99.90;;;;;;5151788;27;20031;-58
2022/05/23 00:27:23;;;;;;;7.75;2.38;;;15.70;99.90;;;;;;5151824;27;20030;-58
2022/05/23 00:29:50;;;;;;;4.85;2.05;;;15.70;99.90;;;;;;5152150;27;20053;-58
2022/05/23 00:35:18;;;;;;;;;;;15.70;99.90;;;;;;5133186;27;20141;-58
2022/05/23 00:37:47;;;;;;;6.28;2.05;;;15.70;99.90;;;;;;5131845;27;19947;-59
2022/05/23 00:40:38;;;;;;;6.78;2.13;;;15.60;99.90;;;;;;5132414;27;20067;-58
2022/05/23 00:43:20;;;;;;;5.72;2.15;;;15.60;99.90;;;;;;5152143;27;20100;-58
2022/05/23 00:45:47;;;;;;;8.05;1.95;;;15.60;99.90;;;;;;5136909;27;20035;-59
2022/05/23 00:48:15;;;;;;;6.40;2.00;;;15.60;99.90;;;;;;5130824;27;20068;-59
2022/05/23 00:50:44;;;;;;;6.22;2.30;;;15.60;99.90;;;;;;5124976;27;20031;-58
2022/05/23 00:53:11;;;;;;;6.00;1.92;;;15.50;99.90;;;;;;5129713;27;20039;-58
2022/05/23 00:55:41;;;;;;;6.00;1.90;;;15.50;99.90;;;;;;5131332;27;20039;-57
2022/05/23 00:58:19;;;;;;;8.30;2.20;;;15.50;99.90;;;;;;5131640;27;20085;-58
2022/05/23 01:00:46;;;;;;;8.20;1.92;;;15.50;99.90;;;;;;5131388;27;20031;-58
2022/05/23 01:03:15;;;;;;;7.03;2.22;;;15.40;99.90;;;;;;5131480;27;21377;-58
2022/05/23 01:05:41;;;;;;;6.25;2.10;;;15.50;99.90;;;;;;5131016;27;20504;-58
2022/05/23 01:08:08;;;;;;;6.05;1.83;;;15.40;99.90;;;;;;5131240;27;20042;-58
2022/05/23 01:10:36;;;;;;;6.78;2.00;;;15.40;99.90;;;;;;5131178;27;20039;-58
2022/05/23 01:13:03;;;;;;;9.95;2.13;;;15.30;99.90;;;;;;5131104;27;20039;-59
2022/05/23 01:15:31;;;;;;;8.50;2.15;;;15.40;99.90;;;;;;5131007;27;20104;-58
2022/05/23 01:17:57;;;;;;;4.55;1.65;;;15.40;99.90;;;;;;5130022;27;20036;-58
2022/05/23 01:20:23;;;;;;;5.80;1.92;;;15.30;99.90;;;;;;5130838;27;20417;-59
2022/05/23 01:23:24;;;;;;;7.97;1.95;;;15.30;99.90;;;;;;5136337;27;20382;-59
2022/05/23 01:25:50;;;;;;;6.05;1.98;;;15.30;99.90;;;;;;5134829;27;20419;-58
2022/05/23 01:28:16;;;;;;;6.22;1.85;;;15.30;99.90;;;;;;5134713;27;20056;-58
2022/05/23 01:30:43;;;;;;;6.95;1.88;;;15.30;99.90;;;;;;5134994;27;20431;-59
2022/05/23 01:33:11;;;;;;;5.97;2.10;;;15.30;99.90;;;;;;5134767;27;20477;-59
2022/05/23 01:35:37;;;;;;;6.82;2.22;;;15.20;99.90;;;;;;5134631;27;20039;-57
2022/05/23 01:38:04;;;;;;;5.78;1.83;;;15.30;99.90;;;;;;5134550;27;20047;-58
2022/05/23 01:40:30;;;;;;;4.38;1.90;;;15.20;99.90;;;;;;5134827;27;20078;-58
2022/05/23 01:42:56;;;;;;;6.88;2.10;;;15.20;99.90;;;;;;5138748;27;20043;-58
2022/05/23 01:45:29;;;;;;;8.18;1.98;;;15.20;99.90;;;;;;5155487;27;20034;-59
2022/05/23 01:47:56;;;;;;;9.27;2.03;;;15.20;99.90;;;;;;5155043;27;20503;-58
2022/05/23 01:50:23;;;;;;;6.45;1.70;;;15.20;99.90;;;;;;5154916;27;20110;-59
2022/05/23 01:52:50;;;;;;;6.32;2.20;;;15.20;99.90;;;;;;5136293;27;20381;-59
2022/05/23 01:55:16;;;;;;;6.00;2.00;;;15.20;99.90;;;;;;5135152;27;20177;-59
2022/05/23 01:57:42;;;;;;;6.15;2.25;;;15.10;99.90;;;;;;5134526;27;20043;-59
2022/05/23 02:02:53;;;;;;;6.05;2.05;;;15.00;99.90;;;;;;5154423;27;20067;-59
2022/05/23 02:05:20;;;;;;;8.27;2.40;;;15.10;99.90;;;;;;5154530;27;20034;-58
2022/05/23 02:07:45;;;;;;;8.90;2.00;;;15.10;99.90;;;;;;5132704;27;20035;-59
2022/05/23 02:10:12;;;;;;;6.43;2.70;;;15.00;99.90;;;;;;5133947;27;20336;-59
2022/05/23 02:12:39;;;;;;;7.22;2.30;;;15.00;99.90;;;;;;5133810;27;20082;-60
2022/05/23 02:15:06;;;;;;;8.23;2.35;;;15.00;99.90;;;;;;5134060;27;20039;-60
2022/05/23 02:17:32;;;;;;;7.07;2.20;;;15.00;99.90;;;;;;5153481;27;20163;-58
2022/05/23 02:19:57;;;;;;;6.25;1.98;;;14.90;99.90;;;;;;5131673;27;20142;-58
2022/05/23 02:22:23;;;;;;;6.82;2.30;;;14.90;99.90;;;;;;5133839;27;20041;-58
2022/05/23 02:24:49;;;;;;;6.82;2.30;;;14.90;99.90;;;;;;5154379;27;20167;-59
2022/05/23 02:27:15;;;;;;;5.45;2.47;;;14.90;99.90;;;;;;5135464;27;20034;-59
2022/05/23 02:29:40;;;;;;;10.15;2.88;;;14.90;99.90;;;;;;5154495;27;20035;-58
2022/05/23 02:32:07;;;;;;;6.65;2.50;;;14.90;99.90;;;;;;5153614;27;20409;-60
2022/05/23 02:34:33;;;;;;;5.82;2.38;;;14.80;99.90;;;;;;5153419;27;20109;-59
2022/05/23 02:36:58;;;;;;;10.23;2.67;;;14.90;99.90;;;;;;5154435;27;20048;-58
2022/05/23 02:39:24;;;;;;;7.88;2.53;;;14.80;99.90;;;;;;5154362;27;20074;-59
2022/05/23 02:41:50;;;;;;;5.20;2.20;;;14.80;99.90;;;;;;5153854;27;20035;-59
2022/05/23 02:44:16;;;;;;;8.45;2.88;;;14.90;99.90;;;;;;5154026;27;20456;-59
2022/05/23 02:46:42;;;;;;;6.93;2.33;;;14.80;99.90;;;;;;5135589;27;20538;-59
2022/05/23 02:49:08;;;;;;;7.60;2.60;;;14.80;99.90;;;;;;5153786;27;20034;-59
2022/05/23 02:51:34;;;;;;;8.35;2.70;;;14.80;99.90;;;;;;5154056;27;20049;-58
2022/05/23 02:54:01;;;;;;;8.55;2.42;;;14.80;99.90;;;;;;5135265;27;20069;-59
2022/05/23 02:56:26;;;;;;;9.10;2.97;;;14.80;99.90;;;;;;5133055;27;20110;-59
2022/05/23 02:58:52;;;;;;;7.40;2.80;;;14.70;99.90;;;;;;5133146;27;20147;-59
2022/05/23 03:01:18;;;;;;;6.15;2.40;;;14.70;99.90;;;;;;5132892;27;20490;-58
2022/05/23 03:03:44;;;;;;;7.65;2.88;;;14.60;99.90;;;;;;5133187;27;20443;-58
2022/05/23 03:06:09;;;;;;;5.68;2.25;;;14.70;99.90;;;;;;5133107;27;20502;-59
2022/05/23 03:08:36;;;;;;;7.30;2.60;;;14.60;99.90;;;;;;5134363;27;20087;-59
2022/05/23 03:11:05;;;;;;;7.22;2.85;;;14.60;99.90;;;;;;5153713;27;20030;-59
2022/05/23 03:13:31;;;;;;;9.02;2.80;;;14.60;99.90;;;;;;5141910;27;20031;-58
2022/05/23 03:15:57;;;;;;;7.25;2.45;;;14.60;99.90;;;;;;5132639;27;20032;-59
2022/05/23 03:18:24;;;;;;;7.65;2.63;;;14.50;99.90;;;;;;5132865;27;20505;-58
2022/05/23 03:20:59;;;;;;;5.95;2.70;;;14.50;99.90;;;;;;5132766;27;20034;-58
2022/05/23 03:29:00;;;;;;;6.78;2.50;;;14.50;99.90;;;;;;5102655;27;19919;-59
2022/05/23 03:31:27;;;;;;;5.57;2.80;;;14.40;99.90;;;;;;5132384;27;20485;-58
2022/05/23 03:33:53;;;;;;;7.40;2.92;;;14.40;99.90;;;;;;5132549;27;20078;-58
2022/05/23 03:36:20;;;;;;;6.60;2.72;;;14.40;99.90;;;;;;5132936;27;20035;-59
2022/05/23 03:38:46;;;;;;;8.15;2.50;;;14.30;99.90;;;;;;5153047;27;20485;-59
2022/05/23 03:41:12;;;;;;;8.43;2.97;;;14.30;99.90;;;;;;5152880;27;20038;-59
2022/05/23 03:43:38;;;;;;;7.43;3.20;;;14.30;99.90;;;;;;5151881;27;20095;-59
2022/05/23 03:46:13;;;;;;;9.27;3.03;;;14.20;99.90;;;;;;5132362;27;20042;-58
2022/05/23 03:48:39;;;;;;;9.00;2.42;;;14.20;99.90;;;;;;5132377;27;20474;-59
2022/05/23 03:51:06;;;;;;;7.55;2.85;;;14.20;99.90;;;;;;5132091;27;20031;-58
2022/05/23 03:53:32;;;;;;;6.72;2.58;;;14.10;99.90;;;;;;5131626;27;20100;-59
2022/05/23 03:55:58;;;;;;;6.78;2.80;;;14.10;99.90;;;;;;5132251;27;20023;-60
2022/05/23 03:58:26;;;;;;;9.50;2.97;;;14.10;99.90;;;;;;5132001;27;20100;-60
2022/05/23 04:00:52;;;;;;;7.22;2.90;;;14.00;99.90;;;;;;5132055;27;20038;-60
2022/05/23 04:03:18;;;;;;;5.07;2.60;;;14.00;99.90;;;;;;5131951;27;20034;-59
2022/05/23 04:05:45;;;;;;;7.82;2.80;;;14.00;99.90;;;;;;5131842;27;20031;-59
2022/05/23 04:08:12;;;;;;;10.23;3.53;;;14.00;99.90;;;;;;5131681;27;20054;-59
2022/05/23 04:10:39;;;;;;;7.75;2.70;;;14.00;99.90;;;;;;5139306;27;20042;-60
2022/05/23 04:13:05;;;;;;;10.15;2.72;;;14.00;99.90;;;;;;5152326;27;20038;-59
2022/05/23 04:15:31;;;;;;;6.38;2.90;;;14.00;99.90;;;;;;5152390;27;20045;-59
2022/05/23 04:17:57;;;;;;;7.55;2.90;;;14.00;99.90;;;;;;5152402;27;20038;-58
2022/05/23 04:20:23;;;;;;;6.10;2.58;;;14.00;99.90;;;;;;5142340;27;20249;-59
2022/05/23 04:22:49;;;;;;;7.40;2.75;;;14.00;99.90;;;;;;5140197;27;20157;-58
2022/05/23 04:25:15;;;;;;;7.05;2.50;;;14.00;99.90;;;;;;5131271;27;20386;-60
2022/05/23 04:27:41;;;;;;;9.20;2.72;;;14.00;99.90;;;;;;5117373;27;20043;-58
2022/05/23 04:30:09;;;;;;;7.18;2.92;;;14.00;99.90;;;;;;5131506;27;20035;-58
2022/05/23 04:35:20;;;;;;;9.48;3.55;;;14.10;99.90;;;;;;5131341;27;20057;-59
2022/05/23 04:37:52;;;;;;;8.63;2.85;;;14.10;99.90;;;;;;5131635;27;20126;-59
2022/05/23 04:40:24;;;;;;;6.38;2.88;;;14.10;99.90;;;;;;5130123;27;20397;-60
2022/05/23 04:42:50;;;;;;;9.40;3.08;;;14.20;99.90;;;;;;5130893;27;20033;-59
2022/05/23 04:45:16;;;;;;;7.22;3.00;;;14.20;99.90;;;;;;5131465;27;20051;-59
2022/05/23 04:50:28;;;;;;;7.18;2.92;;;14.20;99.90;;;;;;5131298;27;20042;-59
2022/05/23 04:52:56;;;;;;;5.80;3.13;;;14.20;99.90;;;;;;5131387;27;20068;-58
2022/05/23 04:55:22;;;;;;;7.78;2.83;;;14.20;99.90;;;;;;5134536;27;20117;-58
2022/05/23 04:57:48;;;;;;;7.45;2.90;;;14.20;99.90;;;;;;5135521;27;20039;-60
2022/05/23 05:00:18;;;;;;;6.45;2.80;;;14.20;99.90;;;;;;5135379;27;20096;-59
2022/05/23 05:02:44;;;;;;;7.85;2.90;;;14.20;99.90;;;;;;5135554;27;20035;-60
2022/05/23 05:05:11;;;;;;;8.65;3.42;;;14.20;99.90;;;;;;5135257;27;20035;-59
2022/05/23 05:07:36;;;;;;;7.90;3.40;;;14.30;99.90;;;;;;5135339;27;20039;-59
2022/05/23 05:10:03;;;;;;;6.68;3.25;;;14.30;99.90;;;;;;5135302;27;20057;-59
2022/05/23 05:12:29;;;;;;;7.40;3.28;;;14.30;99.90;;;;;;5135420;27;20106;-59
2022/05/23 05:14:54;;;;;;;7.68;2.90;;;14.40;99.90;;;;;;5135164;27;20129;-60
2022/05/23 05:17:21;;;;;;;7.63;3.25;;;14.50;99.90;;;;;;5135065;27;20039;-60
2022/05/23 05:19:47;;;;;;;7.28;3.30;;;14.60;99.90;;;;;;5139667;27;20042;-59
2022/05/23 05:22:13;;;;;;;9.35;3.35;;;14.60;99.90;;;;;;5155540;27;20026;-60
2022/05/23 05:24:39;;;;;;;8.75;3.60;;;14.70;99.90;;;;;;5155429;27;20092;-60
2022/05/23 05:27:05;;;;;;;7.13;3.30;;;14.70;99.90;;;;;;5155362;27;20058;-59
2022/05/23 05:29:31;;;;;;;7.57;3.10;;;14.70;99.90;;;;;;5155411;27;20374;-59
2022/05/23 05:32:01;;;;;;;7.00;3.17;;;14.70;99.90;;;;;;5155353;27;20047;-59
2022/05/23 05:34:39;;;;;;;7.53;3.47;;;14.70;99.90;;;;;;5155659;27;20077;-59
2022/05/23 05:37:11;;;;;;;6.57;3.13;;;14.70;99.90;;;;;;5155254;27;20034;-59
2022/05/23 05:39:38;;;;;;;10.57;3.70;;;14.80;99.90;;;;;;5155371;27;20095;-60
2022/05/23 05:42:11;;;;;;;9.55;3.72;;;14.80;99.90;;;;;;5154963;27;20493;-59
2022/05/23 05:44:43;;;;;;;9.18;3.50;;;14.80;99.90;;;;;;5137934;27;20039;-59
2022/05/23 05:47:12;;;;;;;8.43;3.20;;;14.80;99.90;;;;;;5134656;27;20085;-59
2022/05/23 05:49:43;;;;;;;6.55;3.50;;;14.80;99.90;;;;;;5134434;27;20088;-58
2022/05/23 05:52:10;;;;;;;9.85;3.78;;;14.80;99.90;;;;;;5154927;27;20035;-59
2022/05/23 05:54:38;;;;;;;7.60;3.30;;;14.90;99.90;;;;;;5155077;27;20042;-59
2022/05/23 05:57:06;;;;;;;8.90;3.47;;;15.10;99.90;;;;;;5145569;27;20494;-59
2022/05/23 05:59:32;;;;;;;7.72;3.60;;;15.20;99.90;;;;;;5125685;27;20054;-59
2022/05/23 06:01:57;;;;;;;10.27;3.55;;;15.30;99.90;;;;;;5125737;27;20074;-59
2022/05/23 06:04:23;;;;;;;8.70;3.67;;;15.30;99.90;;;;;;5125987;27;20035;-59
2022/05/23 06:12:17;;;;;;;;;;;15.60;99.90;;;;;;5121002;27;20043;-58
2022/05/23 06:14:44;;;;;;;6.97;3.47;;;15.60;99.90;;;;;;5125424;27;19915;-60
2022/05/23 06:17:11;;;;;;;7.15;3.50;;;15.80;99.90;;;;;;5125147;27;20501;-58
2022/05/23 06:19:43;;;;;;;10.02;4.07;;;15.90;99.90;;;;;;5125163;27;20050;-60
2022/05/23 06:22:10;;;;;;;9.73;3.97;;;15.90;99.90;;;;;;5125023;27;20063;-59
2022/05/23 06:24:36;;;;;;;8.02;3.83;;;16.00;99.90;;;;;;5132945;27;20569;-59
2022/05/23 06:27:03;;;;;;;9.05;3.67;;;16.20;99.90;;;;;;5114946;27;20036;-59
2022/05/23 06:29:30;;;;;;;8.70;4.15;;;16.20;99.90;;;;;;5127838;27;20035;-59
2022/05/23 06:31:55;;;;;;;9.23;3.95;;;16.30;99.90;;;;;;5132651;27;20069;-59
2022/05/23 06:34:21;;;;;;;11.27;4.20;;;16.30;99.90;;;;;;5140443;27;20461;-59
2022/05/23 06:36:47;;;;;;;7.90;4.38;;;16.40;99.90;;;;;;5138095;27;20038;-60
2022/05/23 06:39:12;;;;;;;9.57;3.95;;;16.50;99.90;;;;;;5154395;27;20035;-59
2022/05/23 06:41:38;;;;;;;10.73;4.18;;;16.60;99.90;;;;;;5153991;27;20078;-59
2022/05/23 06:44:04;;;;;;;9.85;3.88;;;16.70;99.90;;;;;;5154146;27;20193;-59
2022/05/23 06:46:30;;;;;;;9.05;3.60;;;16.80;99.90;;;;;;5154272;27;20037;-59
2022/05/23 06:48:55;;;;;;;7.65;4.03;;;16.90;99.90;;;;;;5153763;27;20428;-58
2022/05/23 06:51:21;;;;;;;7.80;3.75;;;17.00;99.90;;;;;;5153820;27;20066;-60
2022/05/23 06:53:47;;;;;;;9.43;3.70;;;17.10;99.90;;;;;;5153439;27;20165;-58
2022/05/23 06:56:12;;;;;;;7.78;3.83;;;17.10;99.90;;;;;;5144753;27;20035;-59
2022/05/23 06:58:39;;;;;;;7.05;3.80;;;17.20;99.90;;;;;;5134502;27;20042;-59
2022/05/23 07:01:05;;;;;;;6.97;3.75;;;17.30;99.90;;;;;;5153696;27;20454;-60
2022/05/23 07:03:31;;;;;;;11.13;4.05;;;17.40;99.90;;;;;;5153592;27;20027;-59
2022/05/23 07:14:09;;;;;;;7.05;3.70;;;17.80;99.90;;;;;;5132897;27;19975;-59
2022/05/23 07:16:35;;;;;;;7.65;4.00;;;17.80;99.90;;;;;;5132996;27;20541;-59
2022/05/23 07:19:04;;;;;;;6.50;4.03;;;18.00;99.90;;;;;;5133118;27;20041;-60
2022/05/23 07:21:31;;;;;;;8.60;4.35;;;17.90;99.90;;;;;;5132729;27;20296;-59
2022/05/23 07:23:58;;;;;;;8.80;4.50;;;18.00;99.90;;;;;;5129742;27;20371;-60
2022/05/23 07:26:24;;;;;;;10.32;4.22;;;18.00;99.90;;;;;;5128702;27;20031;-60
2022/05/23 07:28:50;;;;;;;7.93;4.10;;;18.00;99.90;;;;;;5131056;27;20053;-60
2022/05/23 07:31:17;;;;;;;6.35;3.67;;;18.10;99.90;;;;;;5132182;27;20051;-60
2022/05/23 07:33:44;;;;;;;9.82;4.82;;;18.10;99.90;;;;;;5132321;27;20443;-59
2022/05/23 07:36:11;;;;;;;10.57;4.18;;;18.20;99.90;;;;;;5132284;27;20126;-60
2022/05/23 07:38:37;;;;;;;7.22;4.07;;;18.40;99.90;;;;;;5132450;27;20047;-62
2022/05/23 07:41:05;;;;;;;8.00;4.07;;;18.50;99.90;;;;;;5131656;27;20031;-60
2022/05/23 07:43:35;;;;;;;6.95;3.35;;;18.60;99.90;;;;;;5131827;27;20039;-59
2022/05/23 07:46:08;;;;;;;8.50;3.83;;;18.70;99.90;;;;;;5113993;27;20035;-59
2022/05/23 07:48:34;;;;;;;7.95;4.05;;;18.80;99.90;;;;;;5132351;27;20087;-58
2022/05/23 07:51:00;;;;;;;8.60;4.10;;;18.80;99.90;;;;;;5131734;27;20039;-59
2022/05/23 08:01:39;;;;;;;;;;;19.10;99.90;;;;;;5132166;27;20524;-60
2022/05/23 08:04:04;;;;;;;7.40;3.50;;;19.10;99.90;;;;;;5135214;27;19914;-58
2022/05/23 08:06:31;;;;;;;7.85;3.45;;;19.20;99.90;;;;;;5114983;27;20042;-59
2022/05/23 08:08:57;;;;;;;8.45;3.92;;;19.30;99.90;;;;;;5135703;27;20039;-60
2022/05/23 08:11:23;;;;;;;8.85;3.78;;;19.40;99.90;;;;;;5130840;27;20527;-61
2022/05/23 08:13:52;;;;;;;9.60;4.20;;;19.50;99.90;;;;;;5127642;27;20441;-59
2022/05/23 08:16:18;;;;;;;8.13;4.32;;;19.60;99.90;;;;;;5115923;27;20039;-59
2022/05/23 08:18:44;;;;;;;9.23;4.07;;;19.60;99.90;;;;;;5131417;27;20542;-61
2022/05/23 08:21:09;;;;;;;11.57;4.15;;;19.70;99.90;;;;;;5128799;27;20357;-61
2022/05/23 08:23:35;;;;;;;8.57;4.40;;;19.90;99.90;;;;;;5134132;27;20462;-61
2022/05/23 08:26:01;;;;;;;9.85;4.00;;;19.90;99.90;;;;;;5128989;27;20030;-61
2022/05/23 08:28:28;;;;;;;8.63;4.15;;;20.10;99.90;;;;;;5129702;27;20486;-60
2022/05/23 08:30:53;;;;;;;8.68;3.83;;;20.10;99.90;;;;;;5129888;27;20042;-60
2022/05/23 08:33:19;;;;;;;12.00;4.03;;;20.10;99.90;;;;;;5129569;27;20115;-60
2022/05/23 08:35:45;;;;;;;6.60;4.25;;;20.40;99.90;;;;;;5131476;27;20031;-61
2022/05/23 08:38:12;;;;;;;7.75;3.75;;;20.50;99.90;;;;;;5130419;27;20039;-60
2022/05/23 08:40:58;;;;;;;8.93;3.78;;;20.60;99.90;;;;;;5131344;27;20046;-59
2022/05/23 08:43:30;;;;;;;8.18;4.18;;;20.70;99.90;;;;;;5130344;27;20457;-61
2022/05/23 08:45:58;;;;;;;8.20;4.63;;;20.60;99.90;;;;;;5131280;27;20061;-60
2022/05/23 08:48:27;;;;;;;6.38;3.60;;;20.80;99.90;;;;;;5130976;27;20046;-60
2022/05/23 08:51:17;;;;;;;8.88;4.05;;;20.80;99.90;;;;;;5127021;27;20069;-60
2022/05/23 08:54:01;;;;;;;9.60;4.20;;;20.90;99.90;;;;;;5131862;27;20050;-61
2022/05/23 08:56:31;;;;;;;;;;;20.90;99.90;;;;;;5132453;27;20039;-61
2022/05/23 08:59:00;;;;;;;9.43;3.95;;;21.00;99.90;;;;;;5130483;27;19919;-60
2022/05/23 09:01:49;;;;;;;6.38;3.20;;;21.20;99.90;;;;;;5130447;27;20126;-59
2022/05/23 09:04:42;;;;;;;7.07;4.10;;;21.50;99.90;;;;;;5129277;27;20122;-60
2022/05/23 09:07:13;;;;;;;6.60;3.53;;;21.80;99.90;;;;;;5111423;27;20508;-61
2022/05/23 09:09:39;;;;;;;7.93;3.50;;;21.60;99.90;;;;;;5130728;27;20134;-59
2022/05/23 09:12:11;;;;;;;6.97;3.42;;;21.60;99.90;;;;;;5132582;27;20167;-60
2022/05/23 09:14:37;;;;;;;10.60;3.97;;;21.60;99.90;;;;;;5132404;27;20039;-60
2022/05/23 09:17:15;;;;;;;7.70;3.45;;;21.60;99.90;;;;;;5132449;27;20099;-60
2022/05/23 09:19:53;;;;;;;8.98;4.13;;;21.60;99.90;;;;;;5128912;27;20043;-60
2022/05/23 09:22:34;;;;;;;8.25;3.78;;;21.70;99.90;;;;;;5129123;27;20035;-60
2022/05/23 09:25:01;;;;;;;7.32;3.55;;;21.80;99.90;;;;;;5128533;27;20054;-60
2022/05/23 09:27:41;;;;;;;8.43;4.10;;;22.00;99.90;;;;;;5130050;27;20047;-60
2022/05/23 09:30:17;;;;;;;8.25;3.83;;;21.90;99.90;;;;;;5127097;27;20541;-60
2022/05/23 09:32:49;;;;;;;6.80;3.58;;;22.00;99.90;;;;;;5128634;27;20047;-60
2022/05/23 09:35:22;;;;;;;9.32;4.07;;;22.10;99.90;;;;;;5129385;27;20055;-59
2022/05/23 09:38:05;;;;;;;7.00;3.75;;;22.20;99.90;;;;;;5134840;27;20039;-60
2022/05/23 09:40:33;;;;;;;10.63;3.85;;;22.40;99.90;;;;;;5126637;27;20031;-60
2022/05/23 09:49:20;;;;;;;11.02;3.47;;;22.40;99.90;;;;;;5133883;27;20046;-60
2022/05/23 09:51:51;;;;;;;6.82;2.80;;;22.60;99.90;;;;;;5133608;27;20047;-61
2022/05/23 09:54:22;;;;;;;5.43;2.80;;;22.60;99.90;;;;;;5133651;27;20180;-59
2022/05/23 09:56:49;;;;;;;4.90;2.22;;;22.80;99.90;;;;;;5134557;27;20042;-59
2022/05/23 09:59:29;;;;;;;4.40;2.05;;;23.00;99.90;;;;;;5134272;27;20047;-59
2022/05/23 10:02:01;;;;;;;6.20;2.40;;;23.00;99.90;;;;;;5133640;27;20039;-60
2022/05/23 10:04:30;;;;;;;5.40;2.00;;;23.10;99.90;;;;;;5130708;27;20474;-60
2022/05/23 10:06:56;;;;;;;5.30;1.98;;;23.20;99.90;;;;;;5153583;27;20489;-60
2022/05/23 10:09:34;;;;;;;6.63;2.15;;;23.10;99.90;;;;;;5120740;27;20629;-59
2022/05/23 10:12:06;;;;;;;6.05;2.22;;;23.20;99.90;;;;;;5131967;27;20035;-59
2022/05/23 10:14:47;;;;;;;5.78;2.22;;;23.50;99.90;;;;;;5134036;27;20058;-60
2022/05/23 10:17:27;;;;;;;5.82;2.13;;;24.00;99.90;;;;;;5139258;27;20047;-61
2022/05/23 10:19:54;;;;;;;7.88;2.40;;;24.40;99.90;;;;;;5146162;27;20121;-60
2022/05/23 10:22:25;;;;;;;6.47;2.00;;;24.40;99.90;;;;;;5133872;27;20159;-61
2022/05/23 10:24:56;;;;;;;6.30;1.60;;;24.40;99.90;;;;;;5129528;27;20119;-61
2022/05/23 10:27:50;;;;;;;4.18;1.58;;;24.60;99.20;;;;;;5131399;27;20083;-61
2022/05/23 10:30:18;;;;;;;;;;;24.80;99.00;;;;;;5138935;27;20457;-61
2022/05/23 10:32:51;;;;;;;7.90;1.85;;;25.10;99.00;;;;;;5124970;27;19928;-61
2022/05/23 10:35:54;;;;;;;6.95;1.70;;;25.10;98.70;;;;;;5129506;27;20579;-59
2022/05/23 10:44:37;;;;;;;;;;;25.20;97.40;;;;;;5154780;27;20432;-59
2022/05/23 10:47:28;;;;;;;4.07;1.60;;;25.20;96.60;;;;;;5154233;27;19922;-60
2022/05/23 10:50:13;;;;;;;6.05;1.63;;;25.30;96.20;;;;;;5144645;27;20045;-59
2022/05/23 10:53:01;;;;;;;4.70;1.70;;;25.30;96.40;;;;;;5128906;27;20035;-59
2022/05/23 10:55:49;;;;;;;5.25;1.70;;;25.30;95.60;;;;;;5127051;27;20071;-59
2022/05/23 10:58:37;;;;;;;6.82;1.70;;;25.20;95.60;;;;;;5131355;27;20050;-59
2022/05/23 11:01:19;;;;;;;4.18;1.80;;;25.00;96.30;;;;;;5127359;27;20503;-58
2022/05/23 11:03:55;;;;;;;4.57;1.67;;;25.20;97.30;;;;;;5132288;27;20078;-59
2022/05/23 11:06:25;;;;;;;5.97;1.70;;;25.50;97.30;;;;;;5132940;27;20470;-58
2022/05/23 11:09:05;;;;;;;3.67;1.40;;;25.60;97.30;;;;;;5115112;27;20039;-58
2022/05/23 11:11:45;;;;;;;3.72;1.70;;;25.60;96.00;;;;;;5119142;27;20042;-59
2022/05/23 11:14:42;;;;;;;4.00;1.67;;;25.30;95.70;;;;;;5117544;27;20084;-59
2022/05/23 11:17:27;;;;;;;4.38;1.52;;;25.10;94.80;;;;;;5135713;27;20370;-58
2022/05/23 11:20:09;;;;;;;4.07;1.60;;;25.10;95.50;;;;;;5126655;27;20053;-58
2022/05/23 11:22:56;;;;;;;5.07;1.52;;;25.00;95.80;;;;;;5105707;27;20047;-59
2022/05/23 11:25:30;;;;;;;6.10;1.77;;;25.20;97.00;;;;;;5113005;27;20097;-59
2022/05/23 11:34:40;;;;;;;4.22;1.80;;;25.20;96.00;;;;;;5131324;27;20050;-58
2022/05/23 11:39:51;;;;;;;6.20;1.70;;;24.70;95.30;;;;;;5139863;27;20113;-58
2022/05/23 11:42:34;;;;;;;3.83;1.63;;;24.40;95.50;;;;;;5125432;27;20047;-59
2022/05/23 11:47:51;;;;;;;4.70;1.60;;;24.20;95.70;;;;;;5132438;27;20542;-59
2022/05/23 11:50:25;;;;;;;6.55;1.95;;;24.10;96.00;;;;;;5152307;27;20071;-59
2022/05/23 11:53:05;;;;;;;4.43;1.75;;;24.00;96.30;;;;;;5136203;27;20042;-58
2022/05/23 11:55:49;;;;;;;4.43;2.30;;;24.10;97.50;;;;;;5142336;27;20454;-59
2022/05/23 11:58:22;;;;;;;6.78;2.45;;;23.90;97.80;;;;;;5132866;27;20041;-59
2022/05/23 12:01:11;;;;;;;6.47;2.40;;;23.90;98.20;;;;;;5131216;27;20426;-60
2022/05/23 12:03:52;;;;;;;5.32;2.30;;;23.80;99.30;;;;;;5129623;27;20046;-59
2022/05/23 12:06:18;;;;;;;9.35;3.03;;;23.70;98.80;;;;;;5142515;27;20033;-60
2022/05/23 12:08:59;;;;;;;8.48;3.58;;;23.50;99.90;;;;;;5134892;27;20039;-60
2022/05/23 12:11:28;;;;;;;6.57;3.78;;;23.40;99.90;;;;;;5138841;27;20497;-59
2022/05/23 12:13:59;;;;;;;7.75;4.15;;;23.30;99.90;;;;;;5137164;27;20122;-59
2022/05/23 12:16:31;;;;;;;10.98;5.20;;;23.20;99.90;;;;;;5130636;27;20080;-59
2022/05/23 12:19:32;;;;;;;11.35;5.15;;;23.20;99.90;;;;;;5131171;27;20509;-60
2022/05/23 12:22:19;;;;;;;8.68;5.47;;;23.30;99.90;;;;;;5096483;27;20055;-60
2022/05/23 12:25:07;;;;;;;7.70;5.90;;;23.30;99.90;;;;;;5134997;27;20482;-59
2022/05/23 12:27:44;;;;;;;9.35;5.68;;;23.20;99.90;;;;;;5136645;27;20118;-60
2022/05/23 12:30:20;;;;;;;9.90;5.68;;;23.20;99.90;;;;;;5130269;27;20042;-58
2022/05/23 12:33:12;;;;;;;9.48;5.45;;;23.20;99.90;;;;;;5128888;27;20082;-59
2022/05/23 12:35:41;;;;;;;10.48;5.55;;;23.20;99.90;;;;;;5135016;27;20127;-59
2022/05/23 12:38:31;;;;;;;9.23;5.15;;;23.20;99.90;;;;;;5138181;27;20515;-59
2022/05/23 12:41:22;;;;;;;8.90;5.40;;;23.10;99.90;;;;;;5147038;27;20035;-59
2022/05/23 12:44:16;;;;;;;11.57;4.95;;;23.20;99.90;;;;;;5132245;27;20043;-59
2022/05/23 12:46:48;;;;;;;23.35;5.50;;;23.20;99.90;;;;;;5137358;27;20047;-59
2022/05/23 12:49:40;;;;;;;31.75;6.65;;;23.20;99.90;;;;;;5137191;27;20047;-59
2022/05/23 12:52:25;;;;;;;10.55;5.53;;;23.30;99.90;;;;;;5149804;27;20042;-58
2022/05/23 12:55:17;;;;;;;7.50;4.97;;;23.50;99.90;;;;;;5124116;27;20035;-59
2022/05/23 12:58:04;;;;;;;9.75;5.40;;;23.80;99.90;;;;;;5139020;27;20035;-59
2022/05/23 13:00:36;;;;;;;9.20;4.55;;;24.00;99.90;;;;;;5137355;27;20043;-59
2022/05/23 13:03:08;;;;;;;8.10;4.30;;;24.10;99.90;;;;;;5143534;27;20139;-59
2022/05/23 13:05:43;;;;;;;7.95;4.47;;;24.20;99.90;;;;;;5134033;27;20035;-59
2022/05/23 13:08:34;;;;;;;9.98;4.45;;;24.20;99.90;;;;;;5139652;27;20030;-59
2022/05/23 13:11:11;;;;;;;7.70;4.20;;;24.20;99.90;;;;;;5151024;27;20034;-59
2022/05/23 13:13:40;;;;;;;9.35;4.70;;;24.00;99.90;;;;;;5138269;27;20050;-60
2022/05/23 13:16:37;;;;;;;9.13;4.18;;;24.10;99.90;;;;;;5120943;27;20066;-60
2022/05/23 13:22:08;;;;;;;14.93;4.55;;;24.40;99.90;;;;;;5141010;27;20138;-60
2022/05/23 13:24:54;;;;;;;7.30;4.20;;;24.50;99.90;;;;;;5127417;27;20035;-60
2022/05/23 13:27:26;;;;;;;8.85;3.63;;;24.70;99.90;;;;;;5140427;27;20067;-58
2022/05/23 13:29:58;;;;;;;8.05;3.90;;;24.90;99.90;;;;;;5133026;27;20038;-59
2022/05/23 13:32:26;;;;;;;8.60;4.40;;;24.90;99.90;;;;;;5134355;27;20051;-59
2022/05/23 13:34:54;;;;;;;8.52;4.88;;;24.70;99.90;;;;;;5135835;27;20047;-58
2022/05/23 13:37:31;;;;;;;8.45;3.58;;;24.70;99.90;;;;;;5136198;27;20096;-59
2022/05/23 13:40:07;;;;;;;9.32;4.63;;;24.80;99.90;;;;;;5135856;27;20549;-58
2022/05/23 13:42:33;;;;;;;9.05;4.72;;;24.50;99.90;;;;;;5133147;27;20482;-58
2022/05/23 13:45:18;;;;;;;8.55;4.65;;;24.50;99.90;;;;;;5111363;27;20039;-58
2022/05/23 13:48:16;;;;;;;8.82;4.65;;;24.70;99.90;;;;;;5135238;27;20035;-59
2022/05/23 13:50:49;;;;;;;12.07;4.60;;;24.90;99.90;;;;;;5132740;27;20047;-60
2022/05/23 13:53:24;;;;;;;8.90;4.70;;;24.90;99.90;;;;;;5139838;27;20026;-60
2022/05/23 13:55:50;;;;;;;10.15;4.82;;;24.70;99.90;;;;;;5135227;27;20042;-59
2022/05/23 13:58:27;;;;;;;10.18;5.03;;;24.50;99.90;;;;;;5153314;27;20038;-59
2022/05/23 14:01:01;;;;;;;8.38;4.85;;;24.50;99.90;;;;;;5134980;27;20035;-58
2022/05/23 14:03:28;;;;;;;;;;;24.30;99.90;;;;;;5135310;27;20095;-58
2022/05/23 14:05:56;;;;;;;10.18;4.35;;;24.10;99.90;;;;;;5134619;27;19943;-58
2022/05/23 14:08:36;;;;;;;10.02;4.60;;;24.00;99.90;;;;;;5134636;27;20397;-58
2022/05/23 14:11:27;;;;;;;9.00;4.43;;;24.00;99.90;;;;;;5134646;27;20035;-59
2022/05/23 14:13:57;;;;;;;8.80;5.20;;;24.10;99.90;;;;;;5115761;27;20043;-58